sensor_id;sensor_type;location;lat;lon;timestamp;pressure;altitude;pressure_sealevel;temperature;humidity
69153;BME280;56261;51.580;4.578;2023-11-21T00:01:54;101253.28;;;5.91;100.00
69153;BME280;56261;51.580;4.578;2023-11-21T00:04:19;101249.22;;;5.87;100.00
69153;BME280;56261;51.580;4.578;2023-11-21T00:06:45;101259.22;;;5.83;100.00
69153;BME280;56261;51.580;4.578;2023-11-21T00:09:12;101249.34;;;5.86;100.00
69153;BME280;56261;51.580;4.578;2023-11-21T00:11:40;101253.94;;;5.83;100.00
69153;BME280;56261;51.580;4.578;2023-11-21T00:14:05;101263.81;;;5.81;100.00
69153;BME280;56261;51.580;4.578;2023-11-21T00:16:31;101266.72;;;5.78;100.00
69153;BME280;56261;51.580;4.578;2023-11-21T00:18:56;101265.88;;;5.78;100.00
69153;BME280;56261;51.580;4.578;2023-11-21T00:21:22;101257.22;;;5.76;100.00
69153;BME280;56261;51.580;4.578;2023-11-21T00:23:47;101268.38;;;5.79;100.00
69153;BME280;56261;51.580;4.578;2023-11-21T00:26:13;101268.28;;;5.81;100.00
69153;BME280;56261;51.580;4.578;2023-11-21T00:28:39;101258.25;;;5.85;100.00
69153;BME280;56261;51.580;4.578;2023-11-21T00:31:05;101275.00;;;5.85;100.00
69153;BME280;56261;51.580;4.578;2023-11-21T00:33:30;101263.88;;;5.91;100.00
69153;BME280;56261;51.580;4.578;2023-11-21T00:35:56;101271.06;;;6.00;100.00
69153;BME280;56261;51.580;4.578;2023-11-21T00:38:21;101263.84;;;6.02;100.00
69153;BME280;56261;51.580;4.578;2023-11-21T00:40:47;101262.88;;;6.03;100.00
69153;BME280;56261;51.580;4.578;2023-11-21T00:43:12;101254.44;;;6.10;100.00
69153;BME280;56261;51.580;4.578;2023-11-21T00:45:38;101250.84;;;6.20;100.00
69153;BME280;56261;51.580;4.578;2023-11-21T00:48:05;101251.63;;;6.32;100.00
69153;BME280;56261;51.580;4.578;2023-11-21T00:50:31;101250.22;;;6.69;100.00
69153;BME280;56261;51.580;4.578;2023-11-21T00:52:56;101252.06;;;6.78;100.00
69153;BME280;56261;51.580;4.578;2023-11-21T00:55:22;101245.81;;;6.89;100.00
69153;BME280;56261;51.580;4.578;2023-11-21T00:57:48;101248.81;;;7.15;100.00
69153;BME280;56261;51.580;4.578;2023-11-21T01:00:13;101257.50;;;7.26;100.00
69153;BME280;56261;51.580;4.578;2023-11-21T01:02:45;101264.75;;;7.34;100.00
69153;BME280;56261;51.580;4.578;2023-11-21T01:05:10;101267.41;;;7.34;100.00
69153;BME280;56261;51.580;4.578;2023-11-21T01:07:36;101267.25;;;7.36;100.00
69153;BME280;56261;51.580;4.578;2023-11-21T01:10:03;101271.75;;;7.35;100.00
69153;BME280;56261;51.580;4.578;2023-11-21T01:12:31;101265.19;;;7.39;100.00
69153;BME280;56261;51.580;4.578;2023-11-21T01:14:56;101262.53;;;7.39;100.00
69153;BME280;56261;51.580;4.578;2023-11-21T01:17:25;101272.03;;;7.52;100.00
69153;BME280;56261;51.580;4.578;2023-11-21T01:19:50;101259.59;;;7.52;100.00
69153;BME280;56261;51.580;4.578;2023-11-21T01:22:16;101277.34;;;7.61;100.00
69153;BME280;56261;51.580;4.578;2023-11-21T01:24:41;101275.53;;;7.62;100.00
69153;BME280;56261;51.580;4.578;2023-11-21T01:27:07;101281.25;;;7.47;100.00
69153;BME280;56261;51.580;4.578;2023-11-21T01:29:32;101294.25;;;7.60;100.00
69153;BME280;56261;51.580;4.578;2023-11-21T01:31:57;101295.06;;;7.61;100.00
69153;BME280;56261;51.580;4.578;2023-11-21T01:34:23;101299.69;;;7.59;100.00
69153;BME280;56261;51.580;4.578;2023-11-21T01:36:48;101303.06;;;7.71;100.00
69153;BME280;56261;51.580;4.578;2023-11-21T01:39:14;101304.44;;;7.75;100.00
69153;BME280;56261;51.580;4.578;2023-11-21T01:41:41;101301.53;;;7.68;100.00
69153;BME280;56261;51.580;4.578;2023-11-21T01:44:09;101307.94;;;7.75;100.00
69153;BME280;56261;51.580;4.578;2023-11-21T01:46:35;101306.41;;;7.73;100.00
69153;BME280;56261;51.580;4.578;2023-11-21T01:49:01;101312.28;;;7.76;100.00
69153;BME280;56261;51.580;4.578;2023-11-21T01:51:27;101309.75;;;7.75;100.00
69153;BME280;56261;51.580;4.578;2023-11-21T01:53:52;101314.38;;;7.82;100.00
69153;BME280;56261;51.580;4.578;2023-11-21T01:56:18;101309.63;;;7.86;100.00
69153;BME280;56261;51.580;4.578;2023-11-21T01:58:43;101318.28;;;7.88;100.00
69153;BME280;56261;51.580;4.578;2023-11-21T02:01:09;101316.75;;;7.85;100.00
69153;BME280;56261;51.580;4.578;2023-11-21T02:03:35;101321.09;;;7.86;100.00
69153;BME280;56261;51.580;4.578;2023-11-21T02:06:01;101329.75;;;7.98;100.00
69153;BME280;56261;51.580;4.578;2023-11-21T02:08:26;101332.09;;;8.01;100.00
69153;BME280;56261;51.580;4.578;2023-11-21T02:10:52;101321.34;;;8.03;100.00
69153;BME280;56261;51.580;4.578;2023-11-21T02:13:17;101331.81;;;8.14;100.00
69153;BME280;56261;51.580;4.578;2023-11-21T02:15:43;101335.72;;;8.29;100.00
69153;BME280;56261;51.580;4.578;2023-11-21T02:18:08;101327.31;;;8.34;100.00
69153;BME280;56261;51.580;4.578;2023-11-21T02:20:36;101336.56;;;8.30;100.00
69153;BME280;56261;51.580;4.578;2023-11-21T02:23:04;101339.06;;;8.31;100.00
69153;BME280;56261;51.580;4.578;2023-11-21T02:25:31;101337.25;;;8.32;100.00
69153;BME280;56261;51.580;4.578;2023-11-21T02:28:00;101344.13;;;8.44;100.00
69153;BME280;56261;51.580;4.578;2023-11-21T02:30:26;101339.34;;;8.38;100.00
69153;BME280;56261;51.580;4.578;2023-11-21T02:32:53;101344.38;;;8.51;100.00
69153;BME280;56261;51.580;4.578;2023-11-21T02:35:19;101346.44;;;8.57;100.00
69153;BME280;56261;51.580;4.578;2023-11-21T02:37:48;101345.78;;;8.55;100.00
69153;BME280;56261;51.580;4.578;2023-11-21T02:40:14;101338.72;;;8.64;100.00
69153;BME280;56261;51.580;4.578;2023-11-21T02:42:46;101346.44;;;8.67;100.00
69153;BME280;56261;51.580;4.578;2023-11-21T02:45:13;101341.81;;;8.69;100.00
69153;BME280;56261;51.580;4.578;2023-11-21T02:47:39;101336.06;;;8.73;100.00
69153;BME280;56261;51.580;4.578;2023-11-21T02:50:05;101338.16;;;8.80;100.00
69153;BME280;56261;51.580;4.578;2023-11-21T02:52:33;101345.56;;;8.76;100.00
69153;BME280;56261;51.580;4.578;2023-11-21T02:54:59;101350.19;;;8.74;100.00
69153;BME280;56261;51.580;4.578;2023-11-21T02:57:24;101345.25;;;8.79;100.00
69153;BME280;56261;51.580;4.578;2023-11-21T02:59:49;101347.66;;;8.82;100.00
69153;BME280;56261;51.580;4.578;2023-11-21T03:02:15;101341.34;;;8.83;100.00
69153;BME280;56261;51.580;4.578;2023-11-21T03:04:41;101348.03;;;8.87;100.00
69153;BME280;56261;51.580;4.578;2023-11-21T03:07:08;101349.31;;;8.83;100.00
69153;BME280;56261;51.580;4.578;2023-11-21T03:09:34;101348.94;;;8.78;100.00
69153;BME280;56261;51.580;4.578;2023-11-21T03:11:59;101349.31;;;8.83;100.00
69153;BME280;56261;51.580;4.578;2023-11-21T03:14:25;101348.75;;;8.89;100.00
69153;BME280;56261;51.580;4.578;2023-11-21T03:16:50;101358.69;;;8.87;100.00
69153;BME280;56261;51.580;4.578;2023-11-21T03:19:16;101364.41;;;8.92;100.00
69153;BME280;56261;51.580;4.578;2023-11-21T03:21:41;101364.44;;;8.83;100.00
69153;BME280;56261;51.580;4.578;2023-11-21T03:24:06;101359.69;;;8.77;100.00
69153;BME280;56261;51.580;4.578;2023-11-21T03:26:32;101351.59;;;8.78;100.00
69153;BME280;56261;51.580;4.578;2023-11-21T03:28:58;101362.00;;;8.62;100.00
69153;BME280;56261;51.580;4.578;2023-11-21T03:31:24;101364.66;;;8.62;100.00
69153;BME280;56261;51.580;4.578;2023-11-21T03:33:49;101367.03;;;8.65;100.00
69153;BME280;56261;51.580;4.578;2023-11-21T03:36:15;101364.34;;;8.65;100.00
69153;BME280;56261;51.580;4.578;2023-11-21T03:38:41;101362.66;;;8.73;100.00
69153;BME280;56261;51.580;4.578;2023-11-21T03:41:07;101358.88;;;8.76;100.00
69153;BME280;56261;51.580;4.578;2023-11-21T03:43:35;101366.44;;;8.71;100.00
69153;BME280;56261;51.580;4.578;2023-11-21T03:46:01;101359.03;;;8.65;100.00
69153;BME280;56261;51.580;4.578;2023-11-21T03:48:26;101362.84;;;8.62;100.00
69153;BME280;56261;51.580;4.578;2023-11-21T03:50:51;101361.75;;;8.55;100.00
69153;BME280;56261;51.580;4.578;2023-11-21T03:53:17;101377.53;;;8.57;100.00
69153;BME280;56261;51.580;4.578;2023-11-21T03:55:42;101379.47;;;8.55;100.00
69153;BME280;56261;51.580;4.578;2023-11-21T03:58:08;101371.25;;;8.58;100.00
69153;BME280;56261;51.580;4.578;2023-11-21T04:00:33;101387.31;;;8.56;100.00
69153;BME280;56261;51.580;4.578;2023-11-21T04:02:58;101393.47;;;8.57;100.00
69153;BME280;56261;51.580;4.578;2023-11-21T04:05:24;101408.47;;;8.58;100.00
69153;BME280;56261;51.580;4.578;2023-11-21T04:07:50;101396.56;;;8.52;100.00
69153;BME280;56261;51.580;4.578;2023-11-21T04:10:16;101398.53;;;8.60;100.00
69153;BME280;56261;51.580;4.578;2023-11-21T04:12:41;101398.78;;;8.57;100.00
69153;BME280;56261;51.580;4.578;2023-11-21T04:15:07;101401.06;;;8.51;100.00
69153;BME280;56261;51.580;4.578;2023-11-21T04:17:34;101406.06;;;8.64;100.00
69153;BME280;56261;51.580;4.578;2023-11-21T04:20:00;101420.75;;;8.59;100.00
69153;BME280;56261;51.580;4.578;2023-11-21T04:22:25;101414.22;;;8.53;100.00
69153;BME280;56261;51.580;4.578;2023-11-21T04:24:51;101419.09;;;8.48;100.00
69153;BME280;56261;51.580;4.578;2023-11-21T04:27:16;101428.47;;;8.52;100.00
69153;BME280;56261;51.580;4.578;2023-11-21T04:29:45;101434.19;;;8.57;100.00
69153;BME280;56261;51.580;4.578;2023-11-21T04:32:10;101420.50;;;8.52;100.00
69153;BME280;56261;51.580;4.578;2023-11-21T04:34:36;101428.03;;;8.57;100.00
69153;BME280;56261;51.580;4.578;2023-11-21T04:37:01;101437.00;;;8.56;100.00
69153;BME280;56261;51.580;4.578;2023-11-21T04:39:28;101435.88;;;8.58;100.00
69153;BME280;56261;51.580;4.578;2023-11-21T04:41:53;101432.53;;;8.56;100.00
69153;BME280;56261;51.580;4.578;2023-11-21T04:44:18;101436.72;;;8.59;100.00
69153;BME280;56261;51.580;4.578;2023-11-21T04:46:44;101440.91;;;8.61;100.00
69153;BME280;56261;51.580;4.578;2023-11-21T04:49:09;101441.78;;;8.62;100.00
69153;BME280;56261;51.580;4.578;2023-11-21T04:51:41;101441.88;;;8.70;100.00
69153;BME280;56261;51.580;4.578;2023-11-21T04:54:07;101455.03;;;8.71;100.00
69153;BME280;56261;51.580;4.578;2023-11-21T04:56:39;101450.97;;;8.67;100.00
69153;BME280;56261;51.580;4.578;2023-11-21T04:59:04;101443.13;;;8.66;100.00
69153;BME280;56261;51.580;4.578;2023-11-21T05:01:30;101451.78;;;8.87;100.00
69153;BME280;56261;51.580;4.578;2023-11-21T05:03:55;101452.50;;;8.89;100.00
69153;BME280;56261;51.580;4.578;2023-11-21T05:06:22;101453.63;;;8.87;100.00
69153;BME280;56261;51.580;4.578;2023-11-21T05:08:49;101451.50;;;8.90;100.00
69153;BME280;56261;51.580;4.578;2023-11-21T05:11:24;101449.00;;;8.89;100.00
69153;BME280;56261;51.580;4.578;2023-11-21T05:13:49;101454.56;;;8.96;100.00
69153;BME280;56261;51.580;4.578;2023-11-21T05:16:15;101455.97;;;8.90;100.00
69153;BME280;56261;51.580;4.578;2023-11-21T05:18:40;101466.34;;;8.93;100.00
69153;BME280;56261;51.580;4.578;2023-11-21T05:21:06;101467.19;;;8.93;100.00
69153;BME280;56261;51.580;4.578;2023-11-21T05:23:31;101477.13;;;8.91;100.00
69153;BME280;56261;51.580;4.578;2023-11-21T05:25:57;101462.56;;;8.96;100.00
69153;BME280;56261;51.580;4.578;2023-11-21T05:28:22;101477.00;;;8.93;100.00
69153;BME280;56261;51.580;4.578;2023-11-21T05:30:47;101478.66;;;8.94;100.00
69153;BME280;56261;51.580;4.578;2023-11-21T05:33:15;101482.16;;;8.94;100.00
69153;BME280;56261;51.580;4.578;2023-11-21T05:35:40;101484.63;;;9.06;100.00
69153;BME280;56261;51.580;4.578;2023-11-21T05:38:05;101490.28;;;8.93;100.00
69153;BME280;56261;51.580;4.578;2023-11-21T05:40:31;101494.75;;;8.92;100.00
69153;BME280;56261;51.580;4.578;2023-11-21T05:42:56;101508.50;;;8.98;100.00
69153;BME280;56261;51.580;4.578;2023-11-21T05:45:22;101506.09;;;8.94;100.00
69153;BME280;56261;51.580;4.578;2023-11-21T05:47:47;101504.44;;;8.93;100.00
69153;BME280;56261;51.580;4.578;2023-11-21T05:50:14;101504.97;;;8.97;100.00
69153;BME280;56261;51.580;4.578;2023-11-21T05:52:41;101506.25;;;8.93;100.00
69153;BME280;56261;51.580;4.578;2023-11-21T05:55:07;101520.06;;;9.06;100.00
69153;BME280;56261;51.580;4.578;2023-11-21T05:57:34;101518.28;;;9.07;100.00
69153;BME280;56261;51.580;4.578;2023-11-21T06:00:05;101515.31;;;9.10;100.00
69153;BME280;56261;51.580;4.578;2023-11-21T06:02:39;101517.13;;;9.00;100.00
69153;BME280;56261;51.580;4.578;2023-11-21T06:05:07;101525.72;;;8.93;100.00
69153;BME280;56261;51.580;4.578;2023-11-21T06:07:32;101529.78;;;8.98;100.00
69153;BME280;56261;51.580;4.578;2023-11-21T06:09:58;101531.56;;;8.97;100.00
69153;BME280;56261;51.580;4.578;2023-11-21T06:12:23;101542.06;;;8.99;100.00
69153;BME280;56261;51.580;4.578;2023-11-21T06:14:49;101548.06;;;9.10;100.00
69153;BME280;56261;51.580;4.578;2023-11-21T06:17:14;101550.19;;;9.07;100.00
69153;BME280;56261;51.580;4.578;2023-11-21T06:19:39;101553.53;;;9.19;100.00
69153;BME280;56261;51.580;4.578;2023-11-21T06:22:05;101557.75;;;9.11;100.00
69153;BME280;56261;51.580;4.578;2023-11-21T06:24:31;101559.84;;;9.18;100.00
69153;BME280;56261;51.580;4.578;2023-11-21T06:26:56;101551.56;;;9.21;100.00
69153;BME280;56261;51.580;4.578;2023-11-21T06:29:22;101557.03;;;9.19;100.00
69153;BME280;56261;51.580;4.578;2023-11-21T06:31:47;101561.81;;;9.16;100.00
69153;BME280;56261;51.580;4.578;2023-11-21T06:34:12;101560.53;;;9.20;100.00
69153;BME280;56261;51.580;4.578;2023-11-21T06:36:39;101566.09;;;9.26;100.00
69153;BME280;56261;51.580;4.578;2023-11-21T06:39:04;101569.91;;;9.24;100.00
69153;BME280;56261;51.580;4.578;2023-11-21T06:41:34;101565.00;;;9.29;100.00
69153;BME280;56261;51.580;4.578;2023-11-21T06:43:59;101568.50;;;9.29;100.00
69153;BME280;56261;51.580;4.578;2023-11-21T06:46:25;101561.50;;;9.28;100.00
69153;BME280;56261;51.580;4.578;2023-11-21T06:48:50;101569.03;;;9.33;100.00
69153;BME280;56261;51.580;4.578;2023-11-21T06:51:16;101575.38;;;9.32;100.00
69153;BME280;56261;51.580;4.578;2023-11-21T06:53:41;101580.25;;;9.37;100.00
69153;BME280;56261;51.580;4.578;2023-11-21T06:56:19;101587.94;;;9.40;100.00
69153;BME280;56261;51.580;4.578;2023-11-21T06:58:45;101593.69;;;9.45;100.00
69153;BME280;56261;51.580;4.578;2023-11-21T07:01:14;101596.06;;;9.48;100.00
69153;BME280;56261;51.580;4.578;2023-11-21T07:03:40;101598.47;;;9.41;100.00
69153;BME280;56261;51.580;4.578;2023-11-21T07:06:07;101603.91;;;9.40;100.00
69153;BME280;56261;51.580;4.578;2023-11-21T07:08:33;101607.88;;;9.35;100.00
69153;BME280;56261;51.580;4.578;2023-11-21T07:10:58;101613.31;;;9.44;100.00
69153;BME280;56261;51.580;4.578;2023-11-21T07:13:23;101617.66;;;9.45;100.00
69153;BME280;56261;51.580;4.578;2023-11-21T07:15:49;101608.53;;;9.38;100.00
69153;BME280;56261;51.580;4.578;2023-11-21T07:18:14;101615.16;;;9.33;100.00
69153;BME280;56261;51.580;4.578;2023-11-21T07:20:40;101628.31;;;9.25;100.00
69153;BME280;56261;51.580;4.578;2023-11-21T07:23:05;101633.94;;;9.32;100.00
69153;BME280;56261;51.580;4.578;2023-11-21T07:25:31;101628.47;;;9.24;100.00
69153;BME280;56261;51.580;4.578;2023-11-21T07:27:57;101628.31;;;9.25;100.00
69153;BME280;56261;51.580;4.578;2023-11-21T07:30:22;101636.03;;;9.19;100.00
69153;BME280;56261;51.580;4.578;2023-11-21T07:32:48;101642.47;;;9.35;100.00
69153;BME280;56261;51.580;4.578;2023-11-21T07:35:14;101637.44;;;9.32;100.00
69153;BME280;56261;51.580;4.578;2023-11-21T07:37:39;101642.47;;;9.35;100.00
69153;BME280;56261;51.580;4.578;2023-11-21T07:40:05;101641.22;;;9.30;100.00
69153;BME280;56261;51.580;4.578;2023-11-21T07:42:33;101640.09;;;9.32;100.00
69153;BME280;56261;51.580;4.578;2023-11-21T07:44:59;101644.88;;;9.29;100.00
69153;BME280;56261;51.580;4.578;2023-11-21T07:47:24;101656.19;;;9.31;100.00
69153;BME280;56261;51.580;4.578;2023-11-21T07:49:52;101659.13;;;9.38;100.00
69153;BME280;56261;51.580;4.578;2023-11-21T07:52:18;101655.63;;;9.37;100.00
69153;BME280;56261;51.580;4.578;2023-11-21T07:54:46;101669.22;;;9.14;100.00
69153;BME280;56261;51.580;4.578;2023-11-21T07:57:11;101670.66;;;9.09;100.00
69153;BME280;56261;51.580;4.578;2023-11-21T07:59:39;101668.69;;;9.11;100.00
69153;BME280;56261;51.580;4.578;2023-11-21T08:02:06;101674.00;;;9.11;100.00
69153;BME280;56261;51.580;4.578;2023-11-21T08:04:31;101681.41;;;9.17;100.00
69153;BME280;56261;51.580;4.578;2023-11-21T08:06:57;101677.22;;;9.05;100.00
69153;BME280;56261;51.580;4.578;2023-11-21T08:09:22;101694.31;;;9.12;100.00
69153;BME280;56261;51.580;4.578;2023-11-21T08:11:49;101697.97;;;9.11;100.00
69153;BME280;56261;51.580;4.578;2023-11-21T08:14:14;101706.78;;;9.11;100.00
69153;BME280;56261;51.580;4.578;2023-11-21T08:16:40;101707.75;;;9.10;100.00
69153;BME280;56261;51.580;4.578;2023-11-21T08:19:05;101715.31;;;9.15;100.00
69153;BME280;56261;51.580;4.578;2023-11-21T08:21:31;101714.75;;;9.21;100.00
69153;BME280;56261;51.580;4.578;2023-11-21T08:23:56;101704.41;;;9.28;100.00
69153;BME280;56261;51.580;4.578;2023-11-21T08:26:22;101717.72;;;9.28;100.00
69153;BME280;56261;51.580;4.578;2023-11-21T08:28:48;101728.50;;;9.26;100.00
69153;BME280;56261;51.580;4.578;2023-11-21T08:31:13;101713.53;;;9.45;100.00
69153;BME280;56261;51.580;4.578;2023-11-21T08:33:38;101720.38;;;9.47;100.00
69153;BME280;56261;51.580;4.578;2023-11-21T08:36:10;101708.47;;;9.51;100.00
69153;BME280;56261;51.580;4.578;2023-11-21T08:38:37;101709.03;;;9.65;100.00
69153;BME280;56261;51.580;4.578;2023-11-21T08:41:05;101713.91;;;9.69;100.00
69153;BME280;56261;51.580;4.578;2023-11-21T08:43:35;101723.00;;;9.86;100.00
69153;BME280;56261;51.580;4.578;2023-11-21T08:46:07;101716.78;;;9.95;100.00
69153;BME280;56261;51.580;4.578;2023-11-21T08:48:36;101722.69;;;9.99;100.00
69153;BME280;56261;51.580;4.578;2023-11-21T08:51:02;101719.31;;;9.97;100.00
69153;BME280;56261;51.580;4.578;2023-11-21T08:53:27;101726.91;;;9.92;100.00
69153;BME280;56261;51.580;4.578;2023-11-21T08:55:53;101732.25;;;9.92;100.00
69153;BME280;56261;51.580;4.578;2023-11-21T08:58:19;101736.16;;;9.97;100.00
69153;BME280;56261;51.580;4.578;2023-11-21T09:00:44;101737.69;;;10.00;100.00
69153;BME280;56261;51.580;4.578;2023-11-21T09:03:11;101741.75;;;10.04;100.00
69153;BME280;56261;51.580;4.578;2023-11-21T09:05:40;101739.09;;;9.94;100.00
69153;BME280;56261;51.580;4.578;2023-11-21T09:08:05;101740.50;;;9.98;100.00
69153;BME280;56261;51.580;4.578;2023-11-21T09:10:33;101745.69;;;10.00;100.00
69153;BME280;56261;51.580;4.578;2023-11-21T09:13:01;101743.00;;;10.10;100.00
69153;BME280;56261;51.580;4.578;2023-11-21T09:15:27;101750.59;;;10.05;100.00
69153;BME280;56261;51.580;4.578;2023-11-21T09:17:53;101753.09;;;10.06;100.00
69153;BME280;56261;51.580;4.578;2023-11-21T09:20:18;101756.59;;;10.07;100.00
69153;BME280;56261;51.580;4.578;2023-11-21T09:22:47;101763.50;;;10.09;100.00
69153;BME280;56261;51.580;4.578;2023-11-21T09:25:12;101768.13;;;10.07;100.00
69153;BME280;56261;51.580;4.578;2023-11-21T09:27:37;101776.53;;;10.12;100.00
69153;BME280;56261;51.580;4.578;2023-11-21T09:30:03;101775.25;;;10.16;100.00
69153;BME280;56261;51.580;4.578;2023-11-21T09:32:30;101773.69;;;10.24;100.00
69153;BME280;56261;51.580;4.578;2023-11-21T09:34:56;101775.22;;;10.26;100.00
69153;BME280;56261;51.580;4.578;2023-11-21T09:37:23;101782.50;;;10.44;100.00
69153;BME280;56261;51.580;4.578;2023-11-21T09:39:49;101778.44;;;10.39;100.00
69153;BME280;56261;51.580;4.578;2023-11-21T09:42:39;101793.56;;;10.49;100.00
69153;BME280;56261;51.580;4.578;2023-11-21T09:45:26;101792.28;;;10.53;100.00
69153;BME280;56261;51.580;4.578;2023-11-21T09:47:53;101787.53;;;10.47;100.00
69153;BME280;56261;51.580;4.578;2023-11-21T09:50:21;101795.84;;;10.44;100.00
69153;BME280;56261;51.580;4.578;2023-11-21T09:55:25;101801.50;;;10.68;100.00
69153;BME280;56261;51.580;4.578;2023-11-21T09:57:53;101801.66;;;10.67;100.00
69153;BME280;56261;51.580;4.578;2023-11-21T10:00:20;101815.25;;;10.73;100.00
69153;BME280;56261;51.580;4.578;2023-11-21T10:02:49;101813.97;;;10.77;100.00
69153;BME280;56261;51.580;4.578;2023-11-21T10:05:15;101792.66;;;10.68;100.00
69153;BME280;56261;51.580;4.578;2023-11-21T10:07:43;101821.13;;;10.77;100.00
69153;BME280;56261;51.580;4.578;2023-11-21T10:10:10;101830.09;;;10.86;100.00
69153;BME280;56261;51.580;4.578;2023-11-21T10:12:37;101827.69;;;10.83;100.00
69153;BME280;56261;51.580;4.578;2023-11-21T10:15:07;101840.22;;;10.82;100.00
69153;BME280;56261;51.580;4.578;2023-11-21T10:17:38;101846.13;;;10.76;100.00
69153;BME280;56261;51.580;4.578;2023-11-21T10:20:10;101845.19;;;10.67;100.00
69153;BME280;56261;51.580;4.578;2023-11-21T10:22:41;101849.97;;;10.64;100.00
69153;BME280;56261;51.580;4.578;2023-11-21T10:25:11;101847.59;;;10.61;100.00
69153;BME280;56261;51.580;4.578;2023-11-21T10:27:40;101851.94;;;10.62;100.00
69153;BME280;56261;51.580;4.578;2023-11-21T10:30:07;101861.22;;;10.67;100.00
69153;BME280;56261;51.580;4.578;2023-11-21T10:32:37;101863.97;;;10.75;100.00
69153;BME280;56261;51.580;4.578;2023-11-21T10:35:03;101859.50;;;10.66;100.00
69153;BME280;56261;51.580;4.578;2023-11-21T10:37:34;101869.75;;;10.71;100.00
69153;BME280;56261;51.580;4.578;2023-11-21T10:40:00;101875.47;;;10.76;100.00
69153;BME280;56261;51.580;4.578;2023-11-21T10:42:26;101865.75;;;10.85;100.00
69153;BME280;56261;51.580;4.578;2023-11-21T10:44:53;101873.38;;;10.79;100.00
69153;BME280;56261;51.580;4.578;2023-11-21T10:47:19;101874.22;;;10.80;100.00
69153;BME280;56261;51.580;4.578;2023-11-21T10:49:47;101868.47;;;10.75;100.00
69153;BME280;56261;51.580;4.578;2023-11-21T10:52:13;101862.69;;;10.79;100.00
69153;BME280;56261;51.580;4.578;2023-11-21T10:54:43;101859.91;;;10.81;100.00
69153;BME280;56261;51.580;4.578;2023-11-21T10:57:10;101876.19;;;10.78;100.00
69153;BME280;56261;51.580;4.578;2023-11-21T10:59:35;101869.59;;;10.72;100.00
69153;BME280;56261;51.580;4.578;2023-11-21T11:02:06;101878.44;;;10.73;100.00
69153;BME280;56261;51.580;4.578;2023-11-21T11:04:48;101878.41;;;10.83;100.00
69153;BME280;56261;51.580;4.578;2023-11-21T11:07:15;101885.31;;;10.75;100.00
69153;BME280;56261;51.580;4.578;2023-11-21T11:09:44;101895.47;;;10.72;100.00
69153;BME280;56261;51.580;4.578;2023-11-21T11:12:11;101892.78;;;10.72;100.00
69153;BME280;56261;51.580;4.578;2023-11-21T11:14:40;101902.59;;;10.71;100.00
69153;BME280;56261;51.580;4.578;2023-11-21T11:17:07;101885.09;;;10.59;100.00
69153;BME280;56261;51.580;4.578;2023-11-21T11:19:33;101909.94;;;10.59;100.00
69153;BME280;56261;51.580;4.578;2023-11-21T11:22:23;101910.81;;;10.41;100.00
69153;BME280;56261;51.580;4.578;2023-11-21T11:25:19;101918.69;;;10.32;100.00
69153;BME280;56261;51.580;4.578;2023-11-21T11:27:55;101919.91;;;10.28;100.00
69153;BME280;56261;51.580;4.578;2023-11-21T11:33:43;101915.88;;;10.34;100.00
69153;BME280;56261;51.580;4.578;2023-11-21T11:37:10;101912.22;;;10.35;100.00
69153;BME280;56261;51.580;4.578;2023-11-21T11:39:36;101912.91;;;10.37;100.00
69153;BME280;56261;51.580;4.578;2023-11-21T11:42:03;101916.59;;;10.36;100.00
69153;BME280;56261;51.580;4.578;2023-11-21T11:47:34;101932.81;;;10.23;100.00
69153;BME280;56261;51.580;4.578;2023-11-21T11:50:11;101938.59;;;10.18;100.00
69153;BME280;56261;51.580;4.578;2023-11-21T11:52:51;101936.63;;;10.21;100.00
69153;BME280;56261;51.580;4.578;2023-11-21T11:55:19;101933.09;;;10.10;100.00
69153;BME280;56261;51.580;4.578;2023-11-21T11:57:47;101944.47;;;10.12;100.00
69153;BME280;56261;51.580;4.578;2023-11-21T12:00:14;101934.63;;;10.13;100.00
69153;BME280;56261;51.580;4.578;2023-11-21T12:02:51;101942.50;;;10.24;100.00
69153;BME280;56261;51.580;4.578;2023-11-21T12:05:19;101941.69;;;10.33;100.00
69153;BME280;56261;51.580;4.578;2023-11-21T12:07:46;101951.63;;;10.22;100.00
69153;BME280;56261;51.580;4.578;2023-11-21T12:10:13;101947.00;;;10.24;100.00
69153;BME280;56261;51.580;4.578;2023-11-21T12:12:42;101952.03;;;10.27;100.00
69153;BME280;56261;51.580;4.578;2023-11-21T12:15:10;101959.81;;;10.30;100.00
69153;BME280;56261;51.580;4.578;2023-11-21T12:17:37;101958.13;;;10.38;100.00
69153;BME280;56261;51.580;4.578;2023-11-21T12:20:04;101961.31;;;10.23;100.00
69153;BME280;56261;51.580;4.578;2023-11-21T12:22:31;101964.66;;;10.25;100.00
69153;BME280;56261;51.580;4.578;2023-11-21T12:24:56;101965.56;;;10.35;100.00
69153;BME280;56261;51.580;4.578;2023-11-21T12:27:22;101965.25;;;10.38;100.00
69153;BME280;56261;51.580;4.578;2023-11-21T12:29:47;101973.69;;;10.33;100.00
69153;BME280;56261;51.580;4.578;2023-11-21T12:32:13;101975.94;;;10.48;100.00
69153;BME280;56261;51.580;4.578;2023-11-21T12:34:40;101971.75;;;10.45;100.00
69153;BME280;56261;51.580;4.578;2023-11-21T12:37:06;101979.47;;;10.38;100.00
69153;BME280;56261;51.580;4.578;2023-11-21T12:39:31;101967.09;;;10.37;100.00
69153;BME280;56261;51.580;4.578;2023-11-21T12:41:57;101975.38;;;10.34;100.00
69153;BME280;56261;51.580;4.578;2023-11-21T12:44:22;101972.44;;;10.47;100.00
69153;BME280;56261;51.580;4.578;2023-11-21T12:46:49;101971.69;;;10.65;100.00
69153;BME280;56261;51.580;4.578;2023-11-21T12:49:15;101973.41;;;10.66;100.00
69153;BME280;56261;51.580;4.578;2023-11-21T12:51:45;101976.63;;;10.40;100.00
69153;BME280;56261;51.580;4.578;2023-11-21T12:54:11;101977.91;;;10.46;100.00
69153;BME280;56261;51.580;4.578;2023-11-21T12:56:40;101987.75;;;10.45;100.00